sensor_id;sensor_type;location;lat;lon;timestamp;temperature;humidity
24638;DHT22;12773;50.162;8.548;2023-05-21T00:01:24;18.60;99.90
24638;DHT22;12773;50.162;8.548;2023-05-21T00:04:12;18.50;99.90
24638;DHT22;12773;50.162;8.548;2023-05-21T00:07:00;18.60;99.90
24638;DHT22;12773;50.162;8.548;2023-05-21T00:09:49;18.60;99.90
24638;DHT22;12773;50.162;8.548;2023-05-21T00:12:38;18.50;99.90
24638;DHT22;12773;50.162;8.548;2023-05-21T00:15:26;18.50;99.90
24638;DHT22;12773;50.162;8.548;2023-05-21T00:18:14;18.60;99.90
24638;DHT22;12773;50.162;8.548;2023-05-21T00:21:01;18.60;99.90
24638;DHT22;12773;50.162;8.548;2023-05-21T00:23:49;18.60;99.90
24638;DHT22;12773;50.162;8.548;2023-05-21T00:26:37;18.60;99.90
24638;DHT22;12773;50.162;8.548;2023-05-21T00:29:24;18.60;99.90
24638;DHT22;12773;50.162;8.548;2023-05-21T00:32:12;18.60;99.90
24638;DHT22;12773;50.162;8.548;2023-05-21T00:35:01;18.60;99.90
24638;DHT22;12773;50.162;8.548;2023-05-21T00:37:48;18.70;99.90
24638;DHT22;12773;50.162;8.548;2023-05-21T00:40:37;18.70;99.90
24638;DHT22;12773;50.162;8.548;2023-05-21T00:43:26;18.70;99.90
24638;DHT22;12773;50.162;8.548;2023-05-21T00:46:15;18.70;99.90
24638;DHT22;12773;50.162;8.548;2023-05-21T00:49:03;18.80;99.90
24638;DHT22;12773;50.162;8.548;2023-05-21T00:51:52;18.80;99.90
24638;DHT22;12773;50.162;8.548;2023-05-21T00:54:40;18.80;99.90
24638;DHT22;12773;50.162;8.548;2023-05-21T00:57:28;18.80;99.90
24638;DHT22;12773;50.162;8.548;2023-05-21T01:00:17;18.80;99.90
24638;DHT22;12773;50.162;8.548;2023-05-21T01:03:06;18.80;99.90
24638;DHT22;12773;50.162;8.548;2023-05-21T01:05:54;18.80;99.90
24638;DHT22;12773;50.162;8.548;2023-05-21T01:08:42;18.70;99.90
24638;DHT22;12773;50.162;8.548;2023-05-21T01:11:39;18.80;99.90
24638;DHT22;12773;50.162;8.548;2023-05-21T01:14:26;18.70;99.90
24638;DHT22;12773;50.162;8.548;2023-05-21T01:17:14;18.80;99.90
24638;DHT22;12773;50.162;8.548;2023-05-21T01:20:02;18.70;99.90
24638;DHT22;12773;50.162;8.548;2023-05-21T01:22:57;18.70;99.90
24638;DHT22;12773;50.162;8.548;2023-05-21T01:25:44;18.70;99.90
24638;DHT22;12773;50.162;8.548;2023-05-21T01:28:32;18.80;99.90
24638;DHT22;12773;50.162;8.548;2023-05-21T01:31:29;18.80;99.90
24638;DHT22;12773;50.162;8.548;2023-05-21T01:34:19;18.70;99.90
24638;DHT22;12773;50.162;8.548;2023-05-21T01:43:09;18.70;99.90
24638;DHT22;12773;50.162;8.548;2023-05-21T01:45:58;18.80;99.90
24638;DHT22;12773;50.162;8.548;2023-05-21T01:48:47;18.80;99.90
24638;DHT22;12773;50.162;8.548;2023-05-21T01:51:35;18.80;99.90
24638;DHT22;12773;50.162;8.548;2023-05-21T01:54:23;18.80;99.90
24638;DHT22;12773;50.162;8.548;2023-05-21T01:57:10;18.80;99.90
24638;DHT22;12773;50.162;8.548;2023-05-21T01:59:58;18.90;99.90
24638;DHT22;12773;50.162;8.548;2023-05-21T02:02:47;18.80;99.90
24638;DHT22;12773;50.162;8.548;2023-05-21T02:05:34;18.90;99.90
24638;DHT22;12773;50.162;8.548;2023-05-21T02:08:22;18.90;99.90
24638;DHT22;12773;50.162;8.548;2023-05-21T02:11:11;18.90;99.90
24638;DHT22;12773;50.162;8.548;2023-05-21T02:13:58;18.90;99.90
24638;DHT22;12773;50.162;8.548;2023-05-21T02:16:46;18.90;99.90
24638;DHT22;12773;50.162;8.548;2023-05-21T02:19:33;18.90;99.90
24638;DHT22;12773;50.162;8.548;2023-05-21T02:22:21;18.90;99.90
24638;DHT22;12773;50.162;8.548;2023-05-21T02:25:10;18.90;99.90
24638;DHT22;12773;50.162;8.548;2023-05-21T02:27:58;18.80;99.90
24638;DHT22;12773;50.162;8.548;2023-05-21T02:30:46;18.90;99.90
24638;DHT22;12773;50.162;8.548;2023-05-21T02:33:34;18.90;99.90
24638;DHT22;12773;50.162;8.548;2023-05-21T02:36:21;18.90;99.90
24638;DHT22;12773;50.162;8.548;2023-05-21T02:39:10;18.90;99.90
24638;DHT22;12773;50.162;8.548;2023-05-21T02:41:58;18.90;99.90
24638;DHT22;12773;50.162;8.548;2023-05-21T02:44:45;18.90;99.90
24638;DHT22;12773;50.162;8.548;2023-05-21T02:47:33;18.90;99.90
24638;DHT22;12773;50.162;8.548;2023-05-21T02:50:20;18.90;99.90
24638;DHT22;12773;50.162;8.548;2023-05-21T02:53:08;19.00;99.90
24638;DHT22;12773;50.162;8.548;2023-05-21T02:55:56;19.00;99.90
24638;DHT22;12773;50.162;8.548;2023-05-21T02:58:44;19.00;99.90
24638;DHT22;12773;50.162;8.548;2023-05-21T03:01:32;19.00;99.90
24638;DHT22;12773;50.162;8.548;2023-05-21T03:04:19;19.00;99.90
24638;DHT22;12773;50.162;8.548;2023-05-21T03:07:08;19.00;99.90
24638;DHT22;12773;50.162;8.548;2023-05-21T03:09:57;19.00;99.90
24638;DHT22;12773;50.162;8.548;2023-05-21T03:12:45;19.10;99.90
24638;DHT22;12773;50.162;8.548;2023-05-21T03:15:32;19.10;99.90
24638;DHT22;12773;50.162;8.548;2023-05-21T03:18:21;19.20;99.90
24638;DHT22;12773;50.162;8.548;2023-05-21T03:21:09;19.30;99.90
24638;DHT22;12773;50.162;8.548;2023-05-21T03:23:58;19.30;99.90
24638;DHT22;12773;50.162;8.548;2023-05-21T03:26:47;19.30;99.90
24638;DHT22;12773;50.162;8.548;2023-05-21T03:29:35;19.30;99.90
24638;DHT22;12773;50.162;8.548;2023-05-21T03:32:25;19.20;99.90
24638;DHT22;12773;50.162;8.548;2023-05-21T03:35:12;19.30;99.90
24638;DHT22;12773;50.162;8.548;2023-05-21T03:38:00;19.20;99.90
24638;DHT22;12773;50.162;8.548;2023-05-21T03:40:48;19.30;99.90
24638;DHT22;12773;50.162;8.548;2023-05-21T03:43:36;19.20;99.90
24638;DHT22;12773;50.162;8.548;2023-05-21T03:46:23;19.10;99.90
24638;DHT22;12773;50.162;8.548;2023-05-21T03:49:13;19.10;99.90
24638;DHT22;12773;50.162;8.548;2023-05-21T03:52:00;19.10;99.90
24638;DHT22;12773;50.162;8.548;2023-05-21T03:54:47;19.10;99.90
24638;DHT22;12773;50.162;8.548;2023-05-21T03:57:35;19.10;99.90
24638;DHT22;12773;50.162;8.548;2023-05-21T04:00:23;19.00;99.90
24638;DHT22;12773;50.162;8.548;2023-05-21T04:03:10;19.00;99.90
24638;DHT22;12773;50.162;8.548;2023-05-21T04:05:58;19.10;99.90
24638;DHT22;12773;50.162;8.548;2023-05-21T04:08:46;19.00;99.90
24638;DHT22;12773;50.162;8.548;2023-05-21T04:11:33;19.00;99.90
24638;DHT22;12773;50.162;8.548;2023-05-21T04:14:21;19.00;99.90
24638;DHT22;12773;50.162;8.548;2023-05-21T04:17:09;19.00;99.90
24638;DHT22;12773;50.162;8.548;2023-05-21T04:19:57;19.20;99.90
24638;DHT22;12773;50.162;8.548;2023-05-21T04:22:45;19.10;99.90
24638;DHT22;12773;50.162;8.548;2023-05-21T04:25:33;19.20;99.90
24638;DHT22;12773;50.162;8.548;2023-05-21T04:28:20;19.20;99.90
24638;DHT22;12773;50.162;8.548;2023-05-21T04:31:09;19.10;99.90
24638;DHT22;12773;50.162;8.548;2023-05-21T04:33:58;19.00;99.90
24638;DHT22;12773;50.162;8.548;2023-05-21T04:36:46;19.10;99.90
24638;DHT22;12773;50.162;8.548;2023-05-21T04:39:33;19.10;99.90
24638;DHT22;12773;50.162;8.548;2023-05-21T04:42:21;19.10;99.90
24638;DHT22;12773;50.162;8.548;2023-05-21T04:45:09;19.20;99.90
24638;DHT22;12773;50.162;8.548;2023-05-21T04:47:57;19.30;99.90
24638;DHT22;12773;50.162;8.548;2023-05-21T04:50:46;19.30;99.90
24638;DHT22;12773;50.162;8.548;2023-05-21T04:53:33;19.40;99.90
24638;DHT22;12773;50.162;8.548;2023-05-21T04:56:21;19.40;99.90
24638;DHT22;12773;50.162;8.548;2023-05-21T04:59:08;19.40;99.90
24638;DHT22;12773;50.162;8.548;2023-05-21T05:01:56;19.40;99.90
24638;DHT22;12773;50.162;8.548;2023-05-21T05:04:44;19.40;99.90
24638;DHT22;12773;50.162;8.548;2023-05-21T05:07:32;19.60;99.90
24638;DHT22;12773;50.162;8.548;2023-05-21T05:10:19;19.70;99.90
24638;DHT22;12773;50.162;8.548;2023-05-21T05:13:07;19.70;99.90
24638;DHT22;12773;50.162;8.548;2023-05-21T05:15:57;19.80;99.90
24638;DHT22;12773;50.162;8.548;2023-05-21T05:18:45;20.00;99.90
24638;DHT22;12773;50.162;8.548;2023-05-21T05:21:33;20.00;99.90
24638;DHT22;12773;50.162;8.548;2023-05-21T05:24:20;20.00;99.90
24638;DHT22;12773;50.162;8.548;2023-05-21T05:27:08;20.10;99.90
24638;DHT22;12773;50.162;8.548;2023-05-21T05:29:55;20.20;99.90
24638;DHT22;12773;50.162;8.548;2023-05-21T05:32:43;20.30;99.90
24638;DHT22;12773;50.162;8.548;2023-05-21T05:35:31;20.30;99.90
24638;DHT22;12773;50.162;8.548;2023-05-21T05:38:18;20.30;99.90
24638;DHT22;12773;50.162;8.548;2023-05-21T05:41:05;20.40;99.90
24638;DHT22;12773;50.162;8.548;2023-05-21T05:43:53;20.40;99.90
24638;DHT22;12773;50.162;8.548;2023-05-21T05:46:41;20.40;99.90
24638;DHT22;12773;50.162;8.548;2023-05-21T05:49:29;20.60;99.90
24638;DHT22;12773;50.162;8.548;2023-05-21T05:52:17;20.50;99.90
24638;DHT22;12773;50.162;8.548;2023-05-21T05:55:05;20.60;99.90
24638;DHT22;12773;50.162;8.548;2023-05-21T05:57:54;20.70;99.90
24638;DHT22;12773;50.162;8.548;2023-05-21T06:00:41;20.80;99.90
24638;DHT22;12773;50.162;8.548;2023-05-21T06:03:28;20.90;99.90
24638;DHT22;12773;50.162;8.548;2023-05-21T06:06:16;20.90;99.90
24638;DHT22;12773;50.162;8.548;2023-05-21T06:09:04;21.00;99.90
24638;DHT22;12773;50.162;8.548;2023-05-21T06:11:51;21.10;99.90
24638;DHT22;12773;50.162;8.548;2023-05-21T06:14:39;21.30;99.90
24638;DHT22;12773;50.162;8.548;2023-05-21T06:17:28;21.40;99.90
24638;DHT22;12773;50.162;8.548;2023-05-21T06:20:16;21.20;99.90
24638;DHT22;12773;50.162;8.548;2023-05-21T06:23:04;21.10;99.90
24638;DHT22;12773;50.162;8.548;2023-05-21T06:25:53;21.10;99.90
24638;DHT22;12773;50.162;8.548;2023-05-21T06:28:41;21.10;99.90
24638;DHT22;12773;50.162;8.548;2023-05-21T06:31:28;21.10;99.90
24638;DHT22;12773;50.162;8.548;2023-05-21T06:34:18;21.10;99.90
24638;DHT22;12773;50.162;8.548;2023-05-21T06:37:05;21.00;99.90
24638;DHT22;12773;50.162;8.548;2023-05-21T06:39:53;21.00;99.90
24638;DHT22;12773;50.162;8.548;2023-05-21T06:42:40;21.10;99.90
24638;DHT22;12773;50.162;8.548;2023-05-21T06:45:28;21.10;99.90
24638;DHT22;12773;50.162;8.548;2023-05-21T06:48:15;21.10;99.90
24638;DHT22;12773;50.162;8.548;2023-05-21T06:51:03;21.10;99.90
24638;DHT22;12773;50.162;8.548;2023-05-21T06:53:51;21.00;99.90
24638;DHT22;12773;50.162;8.548;2023-05-21T06:56:39;21.20;99.90
24638;DHT22;12773;50.162;8.548;2023-05-21T06:59:27;21.10;99.90
24638;DHT22;12773;50.162;8.548;2023-05-21T07:02:14;21.10;99.90
24638;DHT22;12773;50.162;8.548;2023-05-21T07:05:02;21.20;99.90
24638;DHT22;12773;50.162;8.548;2023-05-21T07:07:49;21.20;99.90
24638;DHT22;12773;50.162;8.548;2023-05-21T07:10:37;21.30;99.90
24638;DHT22;12773;50.162;8.548;2023-05-21T07:13:24;21.10;99.90
24638;DHT22;12773;50.162;8.548;2023-05-21T07:16:12;21.30;99.90
24638;DHT22;12773;50.162;8.548;2023-05-21T07:18:59;21.40;99.90
24638;DHT22;12773;50.162;8.548;2023-05-21T07:21:47;21.40;99.90
24638;DHT22;12773;50.162;8.548;2023-05-21T07:24:35;21.50;99.90
24638;DHT22;12773;50.162;8.548;2023-05-21T07:27:22;21.70;99.90
24638;DHT22;12773;50.162;8.548;2023-05-21T07:30:12;21.70;99.90
24638;DHT22;12773;50.162;8.548;2023-05-21T07:33:00;21.80;99.90
24638;DHT22;12773;50.162;8.548;2023-05-21T07:35:48;21.90;99.90
24638;DHT22;12773;50.162;8.548;2023-05-21T07:38:36;21.90;99.90
24638;DHT22;12773;50.162;8.548;2023-05-21T07:41:25;22.00;99.90
24638;DHT22;12773;50.162;8.548;2023-05-21T07:44:12;22.00;99.90
24638;DHT22;12773;50.162;8.548;2023-05-21T07:47:00;22.10;99.90
24638;DHT22;12773;50.162;8.548;2023-05-21T07:49:47;22.20;99.90
24638;DHT22;12773;50.162;8.548;2023-05-21T07:52:35;22.30;99.90
24638;DHT22;12773;50.162;8.548;2023-05-21T07:55:23;22.40;99.90
24638;DHT22;12773;50.162;8.548;2023-05-21T07:58:10;22.40;99.90
24638;DHT22;12773;50.162;8.548;2023-05-21T08:00:58;22.40;99.90
24638;DHT22;12773;50.162;8.548;2023-05-21T08:03:46;22.30;99.90
24638;DHT22;12773;50.162;8.548;2023-05-21T08:06:34;22.30;99.90
24638;DHT22;12773;50.162;8.548;2023-05-21T08:09:23;22.40;99.90
24638;DHT22;12773;50.162;8.548;2023-05-21T08:12:11;22.50;99.90
24638;DHT22;12773;50.162;8.548;2023-05-21T08:15:00;22.50;99.90
24638;DHT22;12773;50.162;8.548;2023-05-21T08:17:48;22.70;99.90
24638;DHT22;12773;50.162;8.548;2023-05-21T08:20:35;22.80;99.90
24638;DHT22;12773;50.162;8.548;2023-05-21T08:23:23;22.90;99.90
24638;DHT22;12773;50.162;8.548;2023-05-21T08:26:12;23.00;99.90
24638;DHT22;12773;50.162;8.548;2023-05-21T08:29:01;23.20;99.90
24638;DHT22;12773;50.162;8.548;2023-05-21T08:31:49;23.20;99.90
24638;DHT22;12773;50.162;8.548;2023-05-21T08:34:37;23.30;99.90
24638;DHT22;12773;50.162;8.548;2023-05-21T08:37:24;23.30;99.90
24638;DHT22;12773;50.162;8.548;2023-05-21T08:40:12;23.30;99.90
24638;DHT22;12773;50.162;8.548;2023-05-21T08:43:00;23.30;99.90
24638;DHT22;12773;50.162;8.548;2023-05-21T08:45:54;23.50;99.90
24638;DHT22;12773;50.162;8.548;2023-05-21T08:48:37;23.60;99.90
24638;DHT22;12773;50.162;8.548;2023-05-21T08:51:26;23.80;99.90
24638;DHT22;12773;50.162;8.548;2023-05-21T08:54:14;23.80;99.90
24638;DHT22;12773;50.162;8.548;2023-05-21T08:57:02;23.80;99.90
24638;DHT22;12773;50.162;8.548;2023-05-21T08:59:50;23.70;99.90
24638;DHT22;12773;50.162;8.548;2023-05-21T09:02:38;23.70;99.90
24638;DHT22;12773;50.162;8.548;2023-05-21T09:05:27;23.70;99.90
24638;DHT22;12773;50.162;8.548;2023-05-21T09:08:17;23.80;99.90
24638;DHT22;12773;50.162;8.548;2023-05-21T09:11:06;24.10;99.90
24638;DHT22;12773;50.162;8.548;2023-05-21T09:13:54;24.60;99.90
24638;DHT22;12773;50.162;8.548;2023-05-21T09:16:45;24.90;99.90
24638;DHT22;12773;50.162;8.548;2023-05-21T09:19:34;24.50;99.90
24638;DHT22;12773;50.162;8.548;2023-05-21T09:22:23;24.70;99.90
24638;DHT22;12773;50.162;8.548;2023-05-21T09:25:12;24.90;99.90
24638;DHT22;12773;50.162;8.548;2023-05-21T09:27:59;24.90;99.90
24638;DHT22;12773;50.162;8.548;2023-05-21T09:30:50;25.20;99.90
24638;DHT22;12773;50.162;8.548;2023-05-21T09:33:46;25.20;99.90
24638;DHT22;12773;50.162;8.548;2023-05-21T09:36:36;25.00;99.90
24638;DHT22;12773;50.162;8.548;2023-05-21T09:39:27;25.10;99.90
24638;DHT22;12773;50.162;8.548;2023-05-21T09:42:19;25.60;99.90
24638;DHT22;12773;50.162;8.548;2023-05-21T09:45:08;25.50;99.90
24638;DHT22;12773;50.162;8.548;2023-05-21T09:47:56;25.20;99.90
24638;DHT22;12773;50.162;8.548;2023-05-21T09:50:44;25.40;99.90
24638;DHT22;12773;50.162;8.548;2023-05-21T09:53:32;25.90;99.90
24638;DHT22;12773;50.162;8.548;2023-05-21T09:56:27;26.00;99.90
24638;DHT22;12773;50.162;8.548;2023-05-21T09:59:18;26.10;99.90
24638;DHT22;12773;50.162;8.548;2023-05-21T10:02:18;26.20;99.90
24638;DHT22;12773;50.162;8.548;2023-05-21T10:05:07;26.30;99.90
24638;DHT22;12773;50.162;8.548;2023-05-21T10:08:02;26.40;99.90
24638;DHT22;12773;50.162;8.548;2023-05-21T10:10:50;26.50;99.90
24638;DHT22;12773;50.162;8.548;2023-05-21T10:13:40;26.40;99.90
24638;DHT22;12773;50.162;8.548;2023-05-21T10:16:29;26.50;99.90
24638;DHT22;12773;50.162;8.548;2023-05-21T10:19:18;26.60;99.90
24638;DHT22;12773;50.162;8.548;2023-05-21T10:22:07;26.40;99.90
24638;DHT22;12773;50.162;8.548;2023-05-21T10:24:56;26.40;99.90
24638;DHT22;12773;50.162;8.548;2023-05-21T10:27:44;26.40;99.90
24638;DHT22;12773;50.162;8.548;2023-05-21T10:30:32;26.80;99.90
24638;DHT22;12773;50.162;8.548;2023-05-21T10:33:22;27.20;99.90
24638;DHT22;12773;50.162;8.548;2023-05-21T10:36:10;27.20;99.90
24638;DHT22;12773;50.162;8.548;2023-05-21T10:38:59;27.30;99.90
24638;DHT22;12773;50.162;8.548;2023-05-21T10:45:15;27.70;99.90
24638;DHT22;12773;50.162;8.548;2023-05-21T10:57:58;27.60;99.80
24638;DHT22;12773;50.162;8.548;2023-05-21T11:00:39;27.30;99.90
24638;DHT22;12773;50.162;8.548;2023-05-21T11:03:26;27.60;99.90
24638;DHT22;12773;50.162;8.548;2023-05-21T11:06:27;28.10;99.90
24638;DHT22;12773;50.162;8.548;2023-05-21T11:09:15;28.70;99.50
24638;DHT22;12773;50.162;8.548;2023-05-21T11:12:02;28.60;98.30
24638;DHT22;12773;50.162;8.548;2023-05-21T11:14:56;28.10;98.60
24638;DHT22;12773;50.162;8.548;2023-05-21T11:17:44;28.40;98.20
24638;DHT22;12773;50.162;8.548;2023-05-21T11:20:33;28.70;99.50
24638;DHT22;12773;50.162;8.548;2023-05-21T11:23:21;29.20;98.10
24638;DHT22;12773;50.162;8.548;2023-05-21T11:26:09;29.00;97.10
24638;DHT22;12773;50.162;8.548;2023-05-21T11:32:00;28.80;96.60
24638;DHT22;12773;50.162;8.548;2023-05-21T11:34:49;28.70;98.80
24638;DHT22;12773;50.162;8.548;2023-05-21T11:37:38;28.60;96.70
24638;DHT22;12773;50.162;8.548;2023-05-21T11:40:27;28.40;96.90
24638;DHT22;12773;50.162;8.548;2023-05-21T11:43:17;28.50;97.00
24638;DHT22;12773;50.162;8.548;2023-05-21T11:46:05;28.60;96.90
24638;DHT22;12773;50.162;8.548;2023-05-21T11:48:53;28.80;96.80
24638;DHT22;12773;50.162;8.548;2023-05-21T11:51:41;29.00;95.80
24638;DHT22;12773;50.162;8.548;2023-05-21T11:54:29;28.90;95.00
24638;DHT22;12773;50.162;8.548;2023-05-21T11:57:26;29.10;95.10
24638;DHT22;12773;50.162;8.548;2023-05-21T12:00:15;29.30;94.40
24638;DHT22;12773;50.162;8.548;2023-05-21T12:03:04;28.70;93.50
24638;DHT22;12773;50.162;8.548;2023-05-21T12:05:52;28.70;93.90
24638;DHT22;12773;50.162;8.548;2023-05-21T12:08:39;29.30;93.40
24638;DHT22;12773;50.162;8.548;2023-05-21T12:11:27;29.60;93.20
24638;DHT22;12773;50.162;8.548;2023-05-21T12:14:15;29.60;90.40
24638;DHT22;12773;50.162;8.548;2023-05-21T12:17:04;29.60;90.90
24638;DHT22;12773;50.162;8.548;2023-05-21T12:19:53;29.60;89.70
24638;DHT22;12773;50.162;8.548;2023-05-21T12:22:43;29.90;91.40
24638;DHT22;12773;50.162;8.548;2023-05-21T12:25:30;30.60;91.20
24638;DHT22;12773;50.162;8.548;2023-05-21T12:28:20;30.50;87.50
24638;DHT22;12773;50.162;8.548;2023-05-21T12:31:13;30.10;85.00
24638;DHT22;12773;50.162;8.548;2023-05-21T12:33:58;30.10;85.00
24638;DHT22;12773;50.162;8.548;2023-05-21T12:36:48;30.20;86.10
24638;DHT22;12773;50.162;8.548;2023-05-21T12:39:43;29.90;84.90
24638;DHT22;12773;50.162;8.548;2023-05-21T12:42:31;29.80;85.10
24638;DHT22;12773;50.162;8.548;2023-05-21T12:45:22;29.70;85.60
24638;DHT22;12773;50.162;8.548;2023-05-21T12:48:10;29.50;83.40
24638;DHT22;12773;50.162;8.548;2023-05-21T12:50:58;29.90;85.40
24638;DHT22;12773;50.162;8.548;2023-05-21T12:53:46;30.20;82.30
24638;DHT22;12773;50.162;8.548;2023-05-21T12:56:42;30.30;83.40
24638;DHT22;12773;50.162;8.548;2023-05-21T12:59:24;30.60;85.80
24638;DHT22;12773;50.162;8.548;2023-05-21T13:05:17;31.20;86.00
24638;DHT22;12773;50.162;8.548;2023-05-21T13:08:05;31.40;79.70
24638;DHT22;12773;50.162;8.548;2023-05-21T13:10:55;30.90;78.00
24638;DHT22;12773;50.162;8.548;2023-05-21T13:13:42;30.70;80.00
24638;DHT22;12773;50.162;8.548;2023-05-21T13:16:30;30.70;80.40
24638;DHT22;12773;50.162;8.548;2023-05-21T13:19:17;30.60;81.00
24638;DHT22;12773;50.162;8.548;2023-05-21T13:22:05;30.40;86.20
24638;DHT22;12773;50.162;8.548;2023-05-21T13:24:52;30.90;83.00
24638;DHT22;12773;50.162;8.548;2023-05-21T13:27:41;31.30;80.10
24638;DHT22;12773;50.162;8.548;2023-05-21T13:30:29;31.20;76.90
24638;DHT22;12773;50.162;8.548;2023-05-21T13:33:18;31.20;77.00
24638;DHT22;12773;50.162;8.548;2023-05-21T13:36:07;31.40;76.70
24638;DHT22;12773;50.162;8.548;2023-05-21T13:38:55;30.90;74.10
24638;DHT22;12773;50.162;8.548;2023-05-21T13:41:42;30.80;75.60
24638;DHT22;12773;50.162;8.548;2023-05-21T13:44:30;30.80;74.60
24638;DHT22;12773;50.162;8.548;2023-05-21T13:47:19;31.20;72.20
24638;DHT22;12773;50.162;8.548;2023-05-21T13:50:08;31.30;70.30
24638;DHT22;12773;50.162;8.548;2023-05-21T13:52:55;31.50;68.50
24638;DHT22;12773;50.162;8.548;2023-05-21T13:55:43;31.60;73.20
24638;DHT22;12773;50.162;8.548;2023-05-21T13:58:30;31.40;67.90
24638;DHT22;12773;50.162;8.548;2023-05-21T14:01:21;31.20;67.30
24638;DHT22;12773;50.162;8.548;2023-05-21T14:04:09;31.10;67.10
24638;DHT22;12773;50.162;8.548;2023-05-21T14:06:56;31.30;67.70
24638;DHT22;12773;50.162;8.548;2023-05-21T14:09:43;31.30;72.20
24638;DHT22;12773;50.162;8.548;2023-05-21T14:12:31;31.70;72.20
24638;DHT22;12773;50.162;8.548;2023-05-21T14:15:19;31.70;67.40
24638;DHT22;12773;50.162;8.548;2023-05-21T14:18:07;31.90;68.80
24638;DHT22;12773;50.162;8.548;2023-05-21T14:20:56;31.70;65.70
24638;DHT22;12773;50.162;8.548;2023-05-21T14:23:44;31.80;65.40
24638;DHT22;12773;50.162;8.548;2023-05-21T14:26:31;31.70;67.40
24638;DHT22;12773;50.162;8.548;2023-05-21T14:29:18;31.80;63.50
24638;DHT22;12773;50.162;8.548;2023-05-21T14:32:06;31.90;69.00
24638;DHT22;12773;50.162;8.548;2023-05-21T14:34:54;32.10;67.30
24638;DHT22;12773;50.162;8.548;2023-05-21T14:37:42;32.30;68.90
24638;DHT22;12773;50.162;8.548;2023-05-21T14:40:29;32.50;68.40
24638;DHT22;12773;50.162;8.548;2023-05-21T14:43:17;32.50;60.40
24638;DHT22;12773;50.162;8.548;2023-05-21T14:46:04;32.10;59.90
24638;DHT22;12773;50.162;8.548;2023-05-21T14:48:51;32.00;65.80
24638;DHT22;12773;50.162;8.548;2023-05-21T14:51:40;32.20;63.40
24638;DHT22;12773;50.162;8.548;2023-05-21T14:54:29;32.40;62.80
24638;DHT22;12773;50.162;8.548;2023-05-21T14:57:17;32.20;59.50
24638;DHT22;12773;50.162;8.548;2023-05-21T15:00:05;31.90;58.20
24638;DHT22;12773;50.162;8.548;2023-05-21T15:02:52;32.10;66.10
24638;DHT22;12773;50.162;8.548;2023-05-21T15:05:41;32.40;61.40
24638;DHT22;12773;50.162;8.548;2023-05-21T15:08:29;32.30;58.60
24638;DHT22;12773;50.162;8.548;2023-05-21T15:11:16;32.20;62.10
24638;DHT22;12773;50.162;8.548;2023-05-21T15:14:04;32.40;62.20
24638;DHT22;12773;50.162;8.548;2023-05-21T15:16:51;32.50;60.20
24638;DHT22;12773;50.162;8.548;2023-05-21T15:19:39;32.50;60.90
24638;DHT22;12773;50.162;8.548;2023-05-21T15:22:26;32.60;60.40
24638;DHT22;12773;50.162;8.548;2023-05-21T15:25:14;32.70;57.90
24638;DHT22;12773;50.162;8.548;2023-05-21T15:28:03;32.60;58.20
24638;DHT22;12773;50.162;8.548;2023-05-21T15:30:51;32.30;59.30
24638;DHT22;12773;50.162;8.548;2023-05-21T15:33:39;32.10;59.00
24638;DHT22;12773;50.162;8.548;2023-05-21T15:36:26;31.80;58.90
24638;DHT22;12773;50.162;8.548;2023-05-21T15:39:14;31.80;61.00
24638;DHT22;12773;50.162;8.548;2023-05-21T15:42:01;32.00;59.70
24638;DHT22;12773;50.162;8.548;2023-05-21T15:44:49;31.90;58.50
24638;DHT22;12773;50.162;8.548;2023-05-21T15:47:37;31.60;58.80
24638;DHT22;12773;50.162;8.548;2023-05-21T15:50:28;31.60;59.70
24638;DHT22;12773;50.162;8.548;2023-05-21T15:53:21;31.70;58.50
24638;DHT22;12773;50.162;8.548;2023-05-21T15:56:05;31.50;58.70
24638;DHT22;12773;50.162;8.548;2023-05-21T15:58:54;31.60;59.30
24638;DHT22;12773;50.162;8.548;2023-05-21T16:01:43;31.90;58.40
24638;DHT22;12773;50.162;8.548;2023-05-21T16:04:31;31.90;58.70
24638;DHT22;12773;50.162;8.548;2023-05-21T16:07:19;31.80;56.70
24638;DHT22;12773;50.162;8.548;2023-05-21T16:10:08;31.90;57.40
24638;DHT22;12773;50.162;8.548;2023-05-21T16:12:56;32.20;57.70
24638;DHT22;12773;50.162;8.548;2023-05-21T16:15:44;32.20;56.70
24638;DHT22;12773;50.162;8.548;2023-05-21T16:18:33;32.20;57.10
24638;DHT22;12773;50.162;8.548;2023-05-21T16:21:21;32.10;57.60
24638;DHT22;12773;50.162;8.548;2023-05-21T16:24:08;32.10;58.10
24638;DHT22;12773;50.162;8.548;2023-05-21T16:26:56;32.00;56.80
24638;DHT22;12773;50.162;8.548;2023-05-21T16:29:43;32.30;57.30
24638;DHT22;12773;50.162;8.548;2023-05-21T16:32:31;32.80;59.30
24638;DHT22;12773;50.162;8.548;2023-05-21T16:35:18;33.20;58.00
24638;DHT22;12773;50.162;8.548;2023-05-21T16:38:06;33.40;56.90
24638;DHT22;12773;50.162;8.548;2023-05-21T16:40:55;32.90;55.30
24638;DHT22;12773;50.162;8.548;2023-05-21T16:43:42;32.90;57.10
24638;DHT22;12773;50.162;8.548;2023-05-21T16:46:30;32.60;56.70
24638;DHT22;12773;50.162;8.548;2023-05-21T16:49:17;32.60;56.90
24638;DHT22;12773;50.162;8.548;2023-05-21T16:52:05;32.50;57.70
24638;DHT22;12773;50.162;8.548;2023-05-21T16:54:53;32.60;57.40
24638;DHT22;12773;50.162;8.548;2023-05-21T16:57:40;32.60;57.30
24638;DHT22;12773;50.162;8.548;2023-05-21T17:00:27;32.40;57.10
24638;DHT22;12773;50.162;8.548;2023-05-21T17:03:15;32.50;59.20
24638;DHT22;12773;50.162;8.548;2023-05-21T17:06:03;32.10;55.40
24638;DHT22;12773;50.162;8.548;2023-05-21T17:08:52;31.90;55.90
24638;DHT22;12773;50.162;8.548;2023-05-21T17:11:39;31.80;56.60
24638;DHT22;12773;50.162;8.548;2023-05-21T17:14:29;31.70;56.50
24638;DHT22;12773;50.162;8.548;2023-05-21T17:17:17;31.40;56.60
24638;DHT22;12773;50.162;8.548;2023-05-21T17:20:05;31.30;58.00
24638;DHT22;12773;50.162;8.548;2023-05-21T17:22:53;31.30;57.80
24638;DHT22;12773;50.162;8.548;2023-05-21T17:25:40;31.20;58.90
24638;DHT22;12773;50.162;8.548;2023-05-21T17:28:28;30.80;59.30
24638;DHT22;12773;50.162;8.548;2023-05-21T17:31:15;30.80;58.90
24638;DHT22;12773;50.162;8.548;2023-05-21T17:34:03;30.70;59.40
24638;DHT22;12773;50.162;8.548;2023-05-21T17:36:52;30.60;59.60
24638;DHT22;12773;50.162;8.548;2023-05-21T17:39:40;30.60;59.10
24638;DHT22;12773;50.162;8.548;2023-05-21T17:42:27;30.60;58.90
24638;DHT22;12773;50.162;8.548;2023-05-21T17:45:15;30.50;59.40
24638;DHT22;12773;50.162;8.548;2023-05-21T17:48:03;30.50;58.80
24638;DHT22;12773;50.162;8.548;2023-05-21T17:50:51;30.40;59.70
24638;DHT22;12773;50.162;8.548;2023-05-21T17:53:39;30.30;60.10
24638;DHT22;12773;50.162;8.548;2023-05-21T17:56:26;30.40;60.40
24638;DHT22;12773;50.162;8.548;2023-05-21T17:59:14;30.60;61.20
24638;DHT22;12773;50.162;8.548;2023-05-21T18:02:01;30.80;59.60
24638;DHT22;12773;50.162;8.548;2023-05-21T18:04:49;30.80;59.60
24638;DHT22;12773;50.162;8.548;2023-05-21T18:07:38;30.80;60.30